Time;durP1;ratioP1;P1;durP2;ratioP2;P2;SDS_P1;SDS_P2;PMS_P1;PMS_P2;Temp;Humidity;BMP_temperature;BMP_pressure;BME280_temperature;BME280_humidity;BME280_pressure;Samples;Min_cycle;Max_cycle;Signal;HPM_P1;HPM_P2
2022/01/20 00:00:18;;;;;;;2.95;0.80;;;1.10;86.80;;;;;;5072210;28;20360;-70
2022/01/20 00:02:56;;;;;;;1.98;0.85;;;1.10;86.90;;;;;;5072607;28;20475;-70
2022/01/20 00:27:18;;;;;;;1.08;0.70;;;0.90;87.60;;;;;;4999773;28;20101;-70
2022/01/20 00:30:16;;;;;;;1.65;0.75;;;0.90;87.80;;;;;;5072066;28;20112;-70
2022/01/20 00:37:27;;;;;;;1.73;0.80;;;0.80;88.00;;;;;;5071871;28;20048;-71
2022/01/20 00:39:54;;;;;;;1.88;0.60;;;0.80;87.40;;;;;;5071770;28;20105;-71
2022/01/20 00:42:20;;;;;;;0.70;0.70;;;0.80;88.10;;;;;;5072008;28;20166;-71
2022/01/20 00:44:46;;;;;;;0.82;0.70;;;0.80;89.10;;;;;;5071831;28;20020;-71
2022/01/20 00:47:13;;;;;;;1.00;0.70;;;0.80;88.00;;;;;;5071580;28;20483;-71
2022/01/20 00:49:40;;;;;;;0.70;0.70;;;0.80;88.00;;;;;;5071880;28;20032;-71
2022/01/20 00:52:06;;;;;;;0.70;0.70;;;0.80;88.50;;;;;;5071732;28;20040;-72
2022/01/20 00:54:33;;;;;;;1.45;0.80;;;0.70;88.10;;;;;;5071799;28;20020;-72
2022/01/20 00:56:58;;;;;;;1.75;1.00;;;0.70;89.00;;;;;;5071564;28;20040;-72
2022/01/20 00:59:26;;;;;;;2.15;0.70;;;0.70;88.40;;;;;;5073970;28;20021;-71
2022/01/20 01:01:52;;;;;;;2.15;0.60;;;0.60;88.10;;;;;;5075552;28;20028;-72
2022/01/20 01:04:18;;;;;;;1.08;0.88;;;0.60;88.40;;;;;;5076013;28;20082;-72
2022/01/20 01:09:12;;;;;;;0.65;0.60;;;0.60;87.00;;;;;;5075939;28;20023;-72
2022/01/20 01:11:40;;;;;;;1.10;0.73;;;0.60;87.40;;;;;;5075841;28;20029;-72
2022/01/20 01:14:06;;;;;;;0.68;0.68;;;0.60;88.40;;;;;;5075454;28;20029;-71
2022/01/20 01:24:42;;;;;;;1.63;0.73;;;0.50;88.40;;;;;;5075432;28;20131;-71
2022/01/20 01:27:09;;;;;;;0.95;0.85;;;0.50;87.80;;;;;;5075348;28;20024;-71
2022/01/20 01:32:23;;;;;;;1.10;0.82;;;0.50;88.10;;;;;;5075246;28;20048;-71
2022/01/20 01:34:52;;;;;;;1.13;0.85;;;0.50;88.50;;;;;;5075082;28;20052;-71
2022/01/20 01:38:23;;;;;;;2.17;0.95;;;0.50;88.50;;;;;;5074693;28;20067;-71
2022/01/20 01:40:12;;;;;;;1.20;0.65;;;0.40;88.60;;;;;;5074712;28;20031;-72
2022/01/20 01:42:48;;;;;;;0.68;0.68;;;0.40;89.00;;;;;;5074922;28;20055;-72
2022/01/20 01:45:18;;;;;;;1.35;0.60;;;0.40;89.20;;;;;;5074786;28;20032;-72
2022/01/20 01:47:46;;;;;;;1.15;0.70;;;0.40;89.20;;;;;;5075126;28;20020;-72
2022/01/20 01:50:12;;;;;;;2.80;1.10;;;0.40;88.40;;;;;;5074611;28;20028;-72
2022/01/20 01:52:38;;;;;;;0.98;0.95;;;0.30;88.20;;;;;;5074903;28;20032;-72
2022/01/20 01:55:04;;;;;;;1.75;0.90;;;0.30;88.70;;;;;;5074889;28;20028;-72
2022/01/20 01:57:30;;;;;;;2.50;0.90;;;0.30;89.50;;;;;;5074636;28;20024;-76
2022/01/20 01:59:56;;;;;;;1.70;0.73;;;0.30;89.60;;;;;;5074867;28;20103;-76
2022/01/20 02:02:22;;;;;;;0.60;0.60;;;0.30;89.30;;;;;;5074832;28;20032;-76
2022/01/20 02:04:49;;;;;;;0.70;0.70;;;0.20;89.60;;;;;;5074904;28;20073;-76
2022/01/20 02:20:44;;;;;;;2.15;0.60;;;0.20;90.10;;;;;;5074638;28;20078;-76
2022/01/20 02:23:10;;;;;;;2.75;0.80;;;0.20;89.40;;;;;;5074056;28;20025;-77
2022/01/20 02:54:40;;;;;;;0.80;0.80;;;0.10;90.00;;;;;;5073111;28;20048;-76
2022/01/20 02:57:06;;;;;;;1.98;0.90;;;0.10;90.10;;;;;;5075080;28;20048;-76
2022/01/20 02:59:34;;;;;;;2.45;0.90;;;0.10;90.00;;;;;;5074140;28;20032;-76
2022/01/20 03:02:00;;;;;;;1.77;0.85;;;0.00;89.90;;;;;;5073582;28;20506;-76
2022/01/20 03:38:06;;;;;;;3.15;0.85;;;0.00;89.60;;;;;;5436758;22;20061;-77
2022/01/20 03:40:32;;;;;;;3.60;1.00;;;-0.10;88.60;;;;;;5053061;28;20108;-75
2022/01/20 03:42:57;;;;;;;2.40;1.00;;;-0.10;89.00;;;;;;5052599;28;20112;-77
2022/01/20 03:45:26;;;;;;;0.82;0.68;;;-0.10;88.90;;;;;;5052661;28;20021;-75
2022/01/20 03:47:55;;;;;;;0.80;0.80;;;-0.10;89.20;;;;;;5058360;28;20032;-75
2022/01/20 03:53:06;;;;;;;1.55;1.00;;;-0.10;88.80;;;;;;5052544;28;20095;-79
2022/01/20 03:55:32;;;;;;;2.90;0.93;;;-0.10;88.30;;;;;;5052939;28;20016;-79
2022/01/20 03:57:58;;;;;;;0.70;0.70;;;-0.20;88.60;;;;;;5052457;28;20395;-77
2022/01/20 04:00:24;;;;;;;1.40;0.70;;;-0.20;87.40;;;;;;5052627;28;20021;-78
2022/01/20 04:02:50;;;;;;;2.60;0.80;;;-0.30;87.20;;;;;;5052811;28;20078;-78
2022/01/20 04:05:16;;;;;;;0.75;0.70;;;-0.20;87.00;;;;;;5052291;28;20025;-78
2022/01/20 04:07:41;;;;;;;0.93;0.65;;;-0.20;87.90;;;;;;5052620;28;20024;-79
2022/01/20 04:10:08;;;;;;;1.65;0.90;;;-0.20;86.60;;;;;;5060992;28;20024;-76
2022/01/20 04:12:33;;;;;;;1.20;0.77;;;-0.30;86.40;;;;;;5071711;28;20036;-71
2022/01/20 04:15:06;;;;;;;1.65;0.80;;;-0.30;86.50;;;;;;5072510;28;20023;-72
2022/01/20 04:17:33;;;;;;;1.02;0.82;;;-0.30;85.90;;;;;;5072407;28;20031;-74
2022/01/20 04:19:58;;;;;;;0.70;0.70;;;-0.30;86.30;;;;;;5072188;28;20029;-73
2022/01/20 04:22:26;;;;;;;2.28;0.80;;;-0.40;85.40;;;;;;5072218;28;20032;-84
2022/01/20 04:24:52;;;;;;;1.75;0.77;;;-0.40;84.50;;;;;;5072216;28;20501;-76
2022/01/20 04:27:18;;;;;;;2.28;1.00;;;-0.50;84.90;;;;;;5071958;28;20021;-76
2022/01/20 04:29:43;;;;;;;0.73;0.73;;;-0.50;85.50;;;;;;5072236;28;20031;-76
2022/01/20 04:32:09;;;;;;;1.15;0.80;;;-0.50;85.50;;;;;;5071940;28;20113;-76
2022/01/20 04:34:35;;;;;;;4.18;0.80;;;-0.50;85.30;;;;;;5072116;28;20033;-70
2022/01/20 04:37:04;;;;;;;2.20;0.60;;;-0.60;87.30;;;;;;5071959;28;20059;-76
2022/01/20 04:39:32;;;;;;;0.85;0.82;;;-0.30;91.30;;;;;;5072060;28;20372;-77
2022/01/20 04:41:58;;;;;;;0.70;0.70;;;-0.40;86.40;;;;;;5070841;28;20033;-76
2022/01/20 04:44:52;;;;;;;4.28;1.58;;;-0.50;85.20;;;;;;5071747;28;20016;-74
2022/01/20 04:47:23;;;;;;;0.93;0.75;;;-0.50;85.60;;;;;;5071457;28;20107;-77
2022/01/20 04:58:02;;;;;;;2.65;0.90;;;-0.70;85.10;;;;;;5071922;28;20116;-75
2022/01/20 05:00:28;;;;;;;1.90;1.05;;;-0.70;84.50;;;;;;5071766;28;20056;-76
2022/01/20 05:02:54;;;;;;;1.52;1.02;;;-0.70;84.60;;;;;;5071887;28;20024;-72
2022/01/20 05:05:20;;;;;;;3.92;0.85;;;-0.60;90.30;;;;;;5071781;28;20447;-72
2022/01/20 05:07:46;;;;;;;1.90;0.70;;;-0.40;88.10;;;;;;5071310;28;20025;-71
2022/01/20 05:10:13;;;;;;;0.88;0.88;;;-0.50;84.80;;;;;;5070737;28;20033;-71
2022/01/20 05:13:26;;;;;;;2.05;0.98;;;-0.70;85.20;;;;;;5069549;28;20039;-71
2022/01/20 05:15:25;;;;;;;0.93;0.85;;;-0.80;85.00;;;;;;5057755;28;20025;-71
2022/01/20 05:17:52;;;;;;;2.90;1.13;;;-0.80;84.70;;;;;;5070814;28;20040;-71
2022/01/20 05:20:18;;;;;;;1.50;0.73;;;-0.90;84.90;;;;;;5070723;28;20016;-71
2022/01/20 05:22:44;;;;;;;0.85;0.80;;;-0.90;85.20;;;;;;5070851;28;20032;-71
2022/01/20 05:25:10;;;;;;;0.82;0.80;;;-1.00;85.70;;;;;;5070411;28;20037;-76
2022/01/20 05:27:36;;;;;;;1.13;0.90;;;-1.00;85.30;;;;;;5070699;28;20030;-76
2022/01/20 05:30:02;;;;;;;1.73;0.70;;;-1.00;85.60;;;;;;5067828;28;20021;-72
2022/01/20 05:32:28;;;;;;;0.82;0.82;;;-1.00;85.90;;;;;;5063530;28;20045;-73
2022/01/20 05:34:54;;;;;;;1.38;0.80;;;-1.10;85.30;;;;;;5051508;28;20017;-73
2022/01/20 05:37:19;;;;;;;2.50;1.23;;;-1.10;85.60;;;;;;5051048;28;20380;-69
2022/01/20 05:39:48;;;;;;;0.85;0.70;;;-1.00;90.60;;;;;;5050771;28;20036;-69
2022/01/20 05:42:14;;;;;;;0.60;0.60;;;-0.80;92.10;;;;;;5051264;28;20120;-77
2022/01/20 05:44:40;;;;;;;2.38;1.00;;;-0.70;89.10;;;;;;5051714;28;20049;-74
2022/01/20 05:47:10;;;;;;;1.00;0.65;;;-0.90;86.60;;;;;;5055073;28;20032;-75
2022/01/20 05:49:36;;;;;;;;;;;-1.00;86.10;;;;;;5055158;28;20024;-75
2022/01/20 05:52:03;;;;;;;3.03;0.80;;;-1.10;85.80;;;;;;5054677;28;20271;-75
2022/01/20 05:54:29;;;;;;;0.93;0.90;;;-1.20;86.60;;;;;;5054571;28;20060;-75
2022/01/20 05:56:55;;;;;;;2.17;0.77;;;-1.20;87.50;;;;;;5054844;28;20029;-75
2022/01/20 05:59:21;;;;;;;2.72;1.00;;;-1.30;87.60;;;;;;5054318;28;20119;-75
2022/01/20 06:01:53;;;;;;;0.80;0.80;;;-1.30;87.60;;;;;;5054686;28;20112;-75
2022/01/20 06:04:19;;;;;;;1.02;0.93;;;-1.30;87.70;;;;;;5054410;28;20029;-75
2022/01/20 06:06:45;;;;;;;3.08;0.90;;;-1.30;88.00;;;;;;5054461;28;20358;-77
2022/01/20 06:09:10;;;;;;;0.70;0.70;;;-1.30;88.30;;;;;;5053258;28;20191;-77
2022/01/20 06:11:36;;;;;;;1.05;0.80;;;-1.40;87.90;;;;;;5054079;28;20032;-75
2022/01/20 06:14:03;;;;;;;0.68;0.60;;;-1.40;88.00;;;;;;5054642;28;20021;-74
2022/01/20 06:16:29;;;;;;;1.85;0.90;;;-1.40;89.20;;;;;;5054273;28;20127;-75
2022/01/20 06:18:55;;;;;;;1.95;0.93;;;-1.30;90.60;;;;;;5056262;28;20045;-75
2022/01/20 06:21:21;;;;;;;0.70;0.70;;;-1.00;92.30;;;;;;5073472;28;20036;-74
2022/01/20 06:23:47;;;;;;;0.80;0.80;;;-1.10;89.50;;;;;;5073189;28;20337;-74
2022/01/20 06:26:13;;;;;;;1.10;1.00;;;-1.30;89.20;;;;;;5073816;28;20617;-70
2022/01/20 06:28:40;;;;;;;2.53;0.90;;;-1.40;89.50;;;;;;5074215;28;20083;-68
2022/01/20 06:31:06;;;;;;;1.88;0.95;;;-1.50;88.60;;;;;;5073984;28;20506;-74
2022/01/20 06:33:32;;;;;;;2.30;0.90;;;-1.50;88.40;;;;;;5073617;28;20064;-70
2022/01/20 06:35:59;;;;;;;13.48;5.13;;;-1.60;89.40;;;;;;5073604;28;20051;-69
2022/01/20 06:38:25;;;;;;;1.33;0.93;;;-1.60;89.60;;;;;;5071713;28;20048;-70
2022/01/20 06:40:50;;;;;;;3.10;1.40;;;-1.60;89.80;;;;;;5074015;28;20020;-69
2022/01/20 06:43:17;;;;;;;3.20;1.23;;;-1.70;89.90;;;;;;5073643;28;20480;-72
2022/01/20 06:45:42;;;;;;;1.25;0.88;;;-1.70;89.60;;;;;;5068352;28;20032;-71
2022/01/20 06:48:08;;;;;;;3.20;0.95;;;-1.70;89.90;;;;;;5072049;28;20024;-71
2022/01/20 06:50:34;;;;;;;0.85;0.80;;;-1.70;89.90;;;;;;5072921;28;20036;-71
2022/01/20 06:53:00;;;;;;;0.98;0.90;;;-1.70;89.70;;;;;;5067482;28;20036;-71
2022/01/20 06:55:26;;;;;;;2.50;1.00;;;-1.70;90.30;;;;;;5052901;28;20024;-71
2022/01/20 06:57:51;;;;;;;2.67;1.05;;;-1.70;90.00;;;;;;5065002;28;20503;-71
2022/01/20 07:00:20;;;;;;;1.08;0.73;;;-1.70;90.00;;;;;;5073215;28;20376;-71
2022/01/20 07:02:47;;;;;;;2.45;1.27;;;-1.70;90.00;;;;;;5071734;28;20029;-72
2022/01/20 07:05:16;;;;;;;1.55;1.00;;;-1.70;90.00;;;;;;5068401;28;20055;-72
2022/01/20 07:07:42;;;;;;;1.42;0.82;;;-1.70;90.00;;;;;;5059225;28;20029;-72
2022/01/20 07:10:10;;;;;;;5.35;1.30;;;-1.70;89.90;;;;;;5052534;28;20136;-72
2022/01/20 07:12:36;;;;;;;5.57;1.77;;;-1.80;90.00;;;;;;5052685;28;20036;-72
2022/01/20 07:15:03;;;;;;;16.70;5.25;;;-1.70;89.70;;;;;;5053190;28;20021;-73
2022/01/20 07:17:28;;;;;;;1.98;1.10;;;-1.70;90.00;;;;;;5052406;28;20104;-72
2022/01/20 07:19:54;;;;;;;2.50;1.20;;;-1.80;89.60;;;;;;5052838;28;20104;-73
2022/01/20 07:22:20;;;;;;;2.53;1.35;;;-1.80;89.50;;;;;;5051664;28;20033;-73
2022/01/20 07:24:47;;;;;;;1.73;0.90;;;-1.80;89.50;;;;;;5052326;28;20379;-73
2022/01/20 07:27:13;;;;;;;2.88;1.33;;;-1.80;89.60;;;;;;5052603;28;20024;-73
2022/01/20 07:29:39;;;;;;;1.88;1.20;;;-1.80;89.20;;;;;;5052318;28;20021;-73
2022/01/20 07:32:06;;;;;;;3.92;0.95;;;-1.80;89.10;;;;;;5052623;28;20033;-73
2022/01/20 07:34:33;;;;;;;3.42;1.17;;;-1.90;89.60;;;;;;5052804;28;20151;-72
2022/01/20 07:37:00;;;;;;;1.92;1.20;;;-1.80;89.40;;;;;;5052113;28;20049;-72
2022/01/20 07:39:26;;;;;;;1.75;0.90;;;-1.80;89.80;;;;;;5052279;28;20044;-73
2022/01/20 07:41:52;;;;;;;3.13;1.10;;;-1.80;89.60;;;;;;5052375;28;20049;-73
2022/01/20 07:44:19;;;;;;;2.70;1.02;;;-1.80;89.30;;;;;;5052311;28;20029;-72
2022/01/20 07:46:46;;;;;;;3.53;1.27;;;-1.80;88.90;;;;;;5052176;28;20124;-72
2022/01/20 07:49:13;;;;;;;5.57;1.00;;;-1.90;88.70;;;;;;5052106;28;20021;-72
2022/01/20 07:51:39;;;;;;;0.80;0.80;;;-1.90;88.40;;;;;;5050666;28;20074;-72
2022/01/20 07:54:05;;;;;;;4.85;1.40;;;-1.90;88.70;;;;;;5052033;28;20025;-73
2022/01/20 07:56:32;;;;;;;6.40;1.75;;;-1.90;88.00;;;;;;5051762;28;20492;-73
2022/01/20 07:58:58;;;;;;;4.40;1.10;;;-1.90;88.20;;;;;;5051678;28;20031;-73
2022/01/20 08:01:24;;;;;;;3.83;1.30;;;-1.90;87.90;;;;;;5052151;28;20115;-72
2022/01/20 08:03:52;;;;;;;4.20;1.40;;;-1.90;88.00;;;;;;5051752;28;20502;-72
2022/01/20 08:06:22;;;;;;;4.60;1.48;;;-1.90;88.20;;;;;;5050273;28;20442;-67
2022/01/20 08:08:50;;;;;;;5.28;1.00;;;-2.00;88.20;;;;;;5051162;28;20047;-68
2022/01/20 08:11:21;;;;;;;4.32;1.27;;;-1.70;98.10;;;;;;5050351;28;20395;-69
2022/01/20 08:13:46;;;;;;;4.28;1.20;;;-1.40;95.20;;;;;;5051753;28;20417;-68
2022/01/20 08:16:12;;;;;;;3.35;1.10;;;-1.10;98.20;;;;;;5050361;28;20052;-75
2022/01/20 08:18:38;;;;;;;2.53;1.08;;;-1.10;91.30;;;;;;5057700;28;20051;-76
2022/01/20 08:21:04;;;;;;;2.05;1.00;;;-1.40;89.90;;;;;;5071460;28;20379;-75
2022/01/20 08:23:30;;;;;;;3.78;1.15;;;-1.50;90.00;;;;;;5071332;28;20021;-75
2022/01/20 08:25:55;;;;;;;2.22;1.00;;;-1.70;89.50;;;;;;5071698;28;20020;-76
2022/01/20 08:28:22;;;;;;;4.32;1.10;;;-1.80;89.80;;;;;;5071376;28;20033;-75
2022/01/20 08:30:49;;;;;;;4.80;1.00;;;-1.80;90.00;;;;;;5071578;28;20056;-75
2022/01/20 08:33:14;;;;;;;4.28;1.70;;;-1.80;90.10;;;;;;5071415;28;20032;-75
2022/01/20 08:35:41;;;;;;;2.88;1.05;;;-1.80;89.40;;;;;;5071524;28;20016;-76
2022/01/20 08:38:07;;;;;;;6.70;1.50;;;-1.80;89.30;;;;;;5070868;28;20130;-76
2022/01/20 08:40:35;;;;;;;5.80;1.30;;;-1.80;88.90;;;;;;5071498;28;20020;-76
2022/01/20 08:43:02;;;;;;;2.55;1.13;;;-1.80;89.50;;;;;;5070291;28;20021;-76
2022/01/20 08:45:31;;;;;;;4.22;1.23;;;-1.80;89.80;;;;;;5071048;28;20032;-76
2022/01/20 08:47:59;;;;;;;1.83;0.95;;;-1.90;89.50;;;;;;5071079;28;20020;-76
2022/01/20 08:50:27;;;;;;;3.22;1.00;;;-1.90;89.90;;;;;;5071457;28;20078;-71
2022/01/20 08:52:53;;;;;;;3.63;1.23;;;-1.90;89.80;;;;;;5071248;28;20044;-70
2022/01/20 08:55:19;;;;;;;1.52;0.95;;;-1.90;89.60;;;;;;5071690;28;20032;-70
2022/01/20 08:57:46;;;;;;;4.22;1.50;;;-1.90;89.70;;;;;;5071460;28;20129;-70
2022/01/20 09:00:13;;;;;;;6.65;1.77;;;-1.90;89.80;;;;;;5071725;28;20075;-70
2022/01/20 09:02:39;;;;;;;4.05;1.52;;;-1.90;89.70;;;;;;5071690;28;20144;-75
2022/01/20 09:05:05;;;;;;;3.08;1.30;;;-1.90;89.40;;;;;;5071274;28;20567;-75
2022/01/20 09:07:32;;;;;;;1.88;1.10;;;-1.90;89.70;;;;;;5069519;28;20742;-76
2022/01/20 09:10:00;;;;;;;4.15;1.38;;;-1.90;89.50;;;;;;5071067;28;20025;-68
2022/01/20 09:17:43;;;;;;;2.60;1.17;;;-0.80;99.90;;;;;;5071213;28;20036;-68
2022/01/20 09:20:09;;;;;;;1.77;1.20;;;-0.60;94.40;;;;;;5072473;28;20446;-68
2022/01/20 09:22:35;;;;;;;1.75;1.40;;;-0.50;93.90;;;;;;5074957;28;20544;-68
2022/01/20 09:25:01;;;;;;;9.85;5.85;;;-0.40;92.30;;;;;;5074917;28;20100;-69
2022/01/20 09:27:26;;;;;;;4.13;1.52;;;-0.20;91.60;;;;;;5073468;28;20459;-69
2022/01/20 09:29:52;;;;;;;6.28;1.50;;;-0.20;89.10;;;;;;5074600;28;20052;-69
2022/01/20 09:32:20;;;;;;;6.70;1.58;;;-0.20;90.20;;;;;;5075026;28;20499;-70
2022/01/20 09:34:46;;;;;;;3.55;1.05;;;0.10;95.10;;;;;;5074395;28;20009;-69
2022/01/20 09:37:12;;;;;;;5.43;1.10;;;0.30;90.50;;;;;;5074612;28;20045;-69
2022/01/20 09:39:40;;;;;;;4.20;1.60;;;0.30;86.60;;;;;;5074540;28;20025;-69
2022/01/20 09:42:07;;;;;;;5.72;1.50;;;0.20;85.80;;;;;;5074815;28;20414;-68
2022/01/20 09:44:33;;;;;;;5.30;1.42;;;0.10;83.50;;;;;;5074563;28;20391;-69
2022/01/20 09:47:00;;;;;;;3.55;1.40;;;0.10;86.20;;;;;;5074458;28;20025;-68
2022/01/20 09:49:25;;;;;;;4.38;1.85;;;0.50;90.40;;;;;;5074312;28;20075;-68
2022/01/20 09:51:51;;;;;;;3.05;1.20;;;0.60;84.80;;;;;;5056450;28;20487;-69
2022/01/20 09:54:17;;;;;;;3.53;1.52;;;0.70;84.40;;;;;;5074500;28;20775;-68
2022/01/20 09:56:44;;;;;;;3.67;2.28;;;0.90;87.10;;;;;;5074097;28;20020;-69
2022/01/20 09:59:14;;;;;;;2.78;1.33;;;0.90;81.90;;;;;;5074140;28;20035;-69
2022/01/20 10:01:44;;;;;;;2.17;1.20;;;0.70;80.60;;;;;;5074006;28;20163;-68
2022/01/20 10:04:35;;;;;;;3.40;1.00;;;0.60;80.40;;;;;;5073481;28;20024;-69
2022/01/20 10:07:08;;;;;;;2.15;0.80;;;0.40;80.80;;;;;;5074026;28;20103;-76
2022/01/20 10:09:41;;;;;;;5.40;1.60;;;0.40;81.90;;;;;;5073672;28;20012;-74
2022/01/20 10:12:08;;;;;;;1.15;1.05;;;0.20;80.00;;;;;;5074216;28;20025;-74
2022/01/20 10:14:47;;;;;;;3.42;1.10;;;-0.10;80.80;;;;;;5069975;28;20103;-74
2022/01/20 10:17:24;;;;;;;2.92;1.20;;;-0.40;80.70;;;;;;5072104;28;20024;-74
2022/01/20 10:19:55;;;;;;;2.45;0.90;;;-0.70;80.90;;;;;;5070314;28;20036;-73
2022/01/20 10:22:25;;;;;;;1.80;1.10;;;-0.90;82.00;;;;;;5065878;28;20976;-74
2022/01/20 10:25:03;;;;;;;3.88;1.15;;;-0.90;82.60;;;;;;5064941;28;20128;-73
2022/01/20 10:27:34;;;;;;;2.38;1.00;;;-1.00;82.60;;;;;;5063261;28;20021;-73
2022/01/20 10:30:09;;;;;;;3.17;1.02;;;-1.00;83.50;;;;;;5068129;28;20052;-74
2022/01/20 10:32:43;;;;;;;6.70;1.15;;;-1.00;83.20;;;;;;5064159;28;20046;-74
2022/01/20 10:35:11;;;;;;;3.03;1.23;;;-1.10;83.00;;;;;;5066074;28;20029;-74
2022/01/20 10:37:41;;;;;;;5.65;1.15;;;-1.10;83.40;;;;;;5064346;28;20496;-76
2022/01/20 10:40:12;;;;;;;3.03;1.10;;;-1.20;83.90;;;;;;5064117;28;20029;-74
2022/01/20 10:42:41;;;;;;;3.22;1.15;;;-1.20;84.20;;;;;;5069524;28;20029;-74
2022/01/20 10:45:08;;;;;;;2.28;1.13;;;-1.20;84.80;;;;;;5069937;28;20017;-74
2022/01/20 10:47:36;;;;;;;2.60;1.00;;;-1.10;85.00;;;;;;5069571;28;20408;-74
2022/01/20 10:50:17;;;;;;;1.75;1.10;;;-1.20;84.40;;;;;;5070042;28;20051;-74
2022/01/20 10:52:44;;;;;;;7.28;1.10;;;-1.20;84.80;;;;;;5072539;28;20115;-74
2022/01/20 10:55:25;;;;;;;0.80;0.80;;;-1.20;85.10;;;;;;5072536;28;20103;-74
2022/01/20 10:57:56;;;;;;;3.00;1.00;;;-1.20;84.80;;;;;;5069518;28;20021;-73
2022/01/20 11:00:25;;;;;;;1.27;0.90;;;-1.30;85.00;;;;;;5072219;28;20020;-74
2022/01/20 11:02:57;;;;;;;1.80;1.10;;;-1.30;85.20;;;;;;5072274;28;20060;-74
2022/01/20 11:05:24;;;;;;;1.45;0.93;;;-1.30;85.80;;;;;;5072239;28;20078;-74
2022/01/20 11:07:51;;;;;;;0.93;0.90;;;-1.30;85.40;;;;;;5071858;28;20059;-77
2022/01/20 11:10:18;;;;;;;2.20;0.90;;;-1.30;85.70;;;;;;5072797;28;20814;-76
2022/01/20 11:12:44;;;;;;;4.10;1.15;;;-1.30;85.50;;;;;;5069877;28;20059;-75
2022/01/20 11:15:13;;;;;;;4.18;1.00;;;-1.30;85.70;;;;;;5072649;28;20031;-76
2022/01/20 11:17:41;;;;;;;2.55;1.25;;;-1.30;86.00;;;;;;5071988;28;20033;-77
2022/01/20 11:20:17;;;;;;;1.48;1.00;;;-1.30;85.90;;;;;;5071920;28;20021;-77
2022/01/20 11:22:57;;;;;;;3.55;1.00;;;-1.30;86.40;;;;;;5072342;28;20127;-76
2022/01/20 11:25:26;;;;;;;4.13;0.90;;;-1.30;86.70;;;;;;5072134;28;20025;-76
2022/01/20 11:28:21;;;;;;;1.75;1.10;;;-1.20;87.10;;;;;;5071907;28;20804;-75
2022/01/20 11:31:06;;;;;;;3.00;1.08;;;-1.20;87.10;;;;;;5068799;28;20040;-75
2022/01/20 11:33:43;;;;;;;1.85;1.00;;;-1.20;86.80;;;;;;5072047;28;20047;-76
2022/01/20 11:36:28;;;;;;;5.68;1.02;;;-1.20;87.30;;;;;;5069379;28;20017;-77
2022/01/20 11:39:00;;;;;;;3.47;0.82;;;-1.20;87.50;;;;;;5071751;28;20071;-75
2022/01/20 11:41:49;;;;;;;1.38;1.13;;;-1.20;87.50;;;;;;5068962;28;20055;-73
2022/01/20 11:44:18;;;;;;;3.80;0.90;;;-1.20;87.60;;;;;;5070896;28;20036;-73
2022/01/20 11:46:45;;;;;;;2.45;1.10;;;-1.10;87.90;;;;;;5067600;28;20029;-70
2022/01/20 11:49:17;;;;;;;1.70;1.00;;;-1.10;88.00;;;;;;5071842;28;20577;-73
2022/01/20 11:51:58;;;;;;;0.93;0.80;;;-1.10;88.50;;;;;;5070804;28;20460;-73
2022/01/20 11:54:36;;;;;;;1.45;0.90;;;-1.10;88.30;;;;;;5071795;28;20025;-73
2022/01/20 11:57:10;;;;;;;1.48;1.10;;;-1.10;88.70;;;;;;5071620;28;20017;-73
2022/01/20 11:59:40;;;;;;;4.72;1.00;;;-1.10;88.90;;;;;;5068700;28;20059;-73
2022/01/20 12:02:07;;;;;;;3.53;1.08;;;-1.10;89.30;;;;;;5071487;28;20020;-73
2022/01/20 12:04:35;;;;;;;2.15;1.08;;;-1.00;89.10;;;;;;5071411;28;20414;-76
2022/01/20 12:07:01;;;;;;;3.15;1.42;;;-1.00;89.20;;;;;;5071191;28;20480;-75
2022/01/20 12:09:35;;;;;;;2.88;1.05;;;-1.00;89.40;;;;;;5071485;28;20020;-74
2022/01/20 12:12:02;;;;;;;3.00;0.80;;;-1.00;89.60;;;;;;5071684;28;20103;-74
2022/01/20 12:14:36;;;;;;;2.00;1.20;;;-1.00;89.50;;;;;;5071909;28;20043;-74
2022/01/20 12:17:11;;;;;;;4.20;1.67;;;-1.00;89.40;;;;;;5072019;28;20111;-74
2022/01/20 12:19:38;;;;;;;1.15;0.88;;;-1.00;90.00;;;;;;5071956;28;20021;-74
2022/01/20 12:22:05;;;;;;;2.90;0.90;;;-1.00;90.20;;;;;;5071121;28;20036;-70
2022/01/20 12:24:32;;;;;;;5.10;0.82;;;0.90;99.90;;;;;;5070275;28;20124;-71
2022/01/20 12:26:58;;;;;;;2.05;0.80;;;1.90;99.90;;;;;;5071201;28;20043;-71
2022/01/20 12:29:36;;;;;;;3.20;1.00;;;1.20;90.90;;;;;;5071855;28;20033;-71
2022/01/20 12:32:14;;;;;;;1.10;0.70;;;0.50;89.70;;;;;;5071493;28;20041;-71
2022/01/20 12:34:40;;;;;;;3.97;1.00;;;0.10;90.10;;;;;;5071374;28;20081;-71
2022/01/20 12:37:06;;;;;;;0.77;0.77;;;-0.20;90.50;;;;;;5071387;28;20040;-71
2022/01/20 12:39:34;;;;;;;2.95;0.80;;;-0.40;91.00;;;;;;5071656;28;20112;-71
2022/01/20 12:42:03;;;;;;;2.75;1.08;;;-0.50;91.30;;;;;;5071323;28;20108;-71
2022/01/20 12:45:54;;;;;;;1.77;0.80;;;-0.60;91.70;;;;;;5070959;28;20017;-71
2022/01/20 12:47:33;;;;;;;1.60;0.82;;;-0.60;92.00;;;;;;5070312;28;20579;-71
2022/01/20 12:50:01;;;;;;;1.08;0.70;;;-0.60;92.20;;;;;;5070165;28;20025;-71
2022/01/20 12:52:27;;;;;;;2.13;0.93;;;-0.60;92.40;;;;;;5071838;28;20033;-71
2022/01/20 12:54:53;;;;;;;3.10;0.90;;;-0.50;92.70;;;;;;5076250;28;20100;-71
2022/01/20 12:57:20;;;;;;;0.98;0.90;;;-0.50;92.90;;;;;;5078232;28;20103;-71
2022/01/20 12:59:47;;;;;;;1.85;0.80;;;-0.50;92.30;;;;;;5077735;28;20820;-71
2022/01/20 13:02:19;;;;;;;1.10;0.80;;;-0.20;99.90;;;;;;5078213;28;20074;-74
2022/01/20 13:04:46;;;;;;;0.80;0.80;;;0.00;95.00;;;;;;5078413;28;20020;-74
2022/01/20 13:07:16;;;;;;;4.22;0.90;;;-0.10;93.30;;;;;;5077936;28;20039;-75
2022/01/20 13:09:47;;;;;;;4.60;1.10;;;-0.20;93.40;;;;;;5077722;28;20024;-74
2022/01/20 13:12:17;;;;;;;3.85;1.05;;;-0.30;93.00;;;;;;5077489;28;20020;-74
2022/01/20 13:14:48;;;;;;;3.72;1.10;;;-0.30;93.10;;;;;;5077795;28;20572;-74
2022/01/20 13:17:22;;;;;;;3.25;0.90;;;-0.40;92.90;;;;;;5078552;28;20039;-75
2022/01/20 13:19:48;;;;;;;1.52;0.90;;;-0.40;92.90;;;;;;5078051;28;20123;-74
2022/01/20 13:22:24;;;;;;;3.70;0.90;;;-0.40;93.10;;;;;;5078497;28;20032;-75
2022/01/20 13:24:49;;;;;;;3.38;0.73;;;-0.40;92.80;;;;;;5077795;28;20012;-75
2022/01/20 13:27:15;;;;;;;1.80;0.82;;;-0.40;92.70;;;;;;5078215;28;20028;-75
2022/01/20 13:29:49;;;;;;;0.95;0.70;;;-0.40;92.90;;;;;;5076746;28;20636;-75
2022/01/20 13:32:15;;;;;;;3.58;1.00;;;-0.40;93.20;;;;;;5078074;28;20123;-75
2022/01/20 13:34:58;;;;;;;1.98;0.90;;;-0.40;93.00;;;;;;5077844;28;20025;-75
2022/01/20 13:37:25;;;;;;;2.20;0.98;;;-0.40;93.00;;;;;;5077708;28;20559;-74
2022/01/20 13:39:55;;;;;;;1.05;0.75;;;-0.40;93.10;;;;;;5077858;28;20514;-74
2022/01/20 13:42:32;;;;;;;;;;;-0.40;93.30;;;;;;5078418;28;20031;-74
2022/01/20 13:45:18;;;;;;;2.53;0.88;;;-0.40;93.40;;;;;;5078012;28;19959;-75
2022/01/20 13:47:48;;;;;;;1.48;0.90;;;-0.40;93.50;;;;;;5077786;28;20081;-74
2022/01/20 13:50:15;;;;;;;;;;;-0.40;93.80;;;;;;5078338;28;20525;-74
2022/01/20 13:52:41;;;;;;;3.30;1.00;;;-0.50;93.60;;;;;;5077992;28;19912;-75
2022/01/20 13:55:19;;;;;;;3.85;1.00;;;-0.50;93.90;;;;;;5077957;28;20021;-76
2022/01/20 13:57:45;;;;;;;3.47;1.13;;;-0.40;93.90;;;;;;5078074;28;20509;-76
2022/01/20 14:00:13;;;;;;;2.95;1.08;;;-0.40;93.90;;;;;;5076508;28;20031;-75
2022/01/20 14:02:40;;;;;;;3.55;1.10;;;-0.40;93.80;;;;;;5077746;28;20134;-75
2022/01/20 14:05:06;;;;;;;3.20;1.10;;;-0.40;94.00;;;;;;5076123;28;20032;-74
2022/01/20 14:07:33;;;;;;;1.80;1.10;;;-0.40;94.20;;;;;;5073671;28;20040;-74
2022/01/20 14:09:59;;;;;;;3.85;2.08;;;-0.40;94.10;;;;;;5074073;28;20392;-74
2022/01/20 14:12:25;;;;;;;1.50;0.90;;;-0.40;93.90;;;;;;5074453;28;20032;-74
2022/01/20 14:14:51;;;;;;;2.67;1.33;;;-0.40;93.90;;;;;;5073121;28;20032;-70
2022/01/20 14:17:22;;;;;;;1.90;1.13;;;-0.40;94.10;;;;;;5073229;28;20035;-71
2022/01/20 14:19:55;;;;;;;3.13;1.10;;;0.60;99.90;;;;;;5073416;28;20082;-71
2022/01/20 14:22:21;;;;;;;3.13;1.15;;;0.40;96.10;;;;;;5074381;28;20028;-71
2022/01/20 14:24:47;;;;;;;2.25;0.93;;;0.20;94.30;;;;;;5073770;28;20376;-71
2022/01/20 14:27:15;;;;;;;2.55;0.93;;;-0.10;93.90;;;;;;5074226;28;20036;-71
2022/01/20 14:29:43;;;;;;;2.55;0.95;;;-0.20;94.20;;;;;;5073838;28;20025;-71
2022/01/20 14:32:10;;;;;;;3.45;1.00;;;-0.40;94.00;;;;;;5074013;28;20040;-71
2022/01/20 14:34:36;;;;;;;6.03;1.10;;;-0.40;95.20;;;;;;5074042;28;20503;-72
2022/01/20 14:37:02;;;;;;;4.47;1.30;;;-0.30;94.70;;;;;;5061166;28;20041;-68
2022/01/20 14:39:28;;;;;;;4.00;1.10;;;-0.40;94.10;;;;;;5054196;28;20033;-70
2022/01/20 14:41:54;;;;;;;3.15;1.42;;;-0.40;94.30;;;;;;5053545;28;20472;-76
2022/01/20 14:44:20;;;;;;;2.97;1.40;;;-0.50;94.20;;;;;;5054370;28;20053;-76
2022/01/20 14:46:46;;;;;;;4.10;1.20;;;-0.50;94.10;;;;;;5053767;28;20456;-76
2022/01/20 14:49:12;;;;;;;6.82;1.10;;;-0.60;94.10;;;;;;5054197;28;20032;-75
2022/01/20 14:51:38;;;;;;;1.70;1.08;;;-0.60;93.80;;;;;;5053564;28;20504;-75
2022/01/20 14:54:04;;;;;;;5.00;1.30;;;-0.60;93.80;;;;;;5054037;28;20109;-75
2022/01/20 14:56:30;;;;;;;6.47;1.65;;;-0.60;93.70;;;;;;5053758;28;20028;-76
2022/01/20 14:58:56;;;;;;;8.68;1.25;;;-0.60;93.60;;;;;;5053590;28;20025;-76
2022/01/20 15:01:21;;;;;;;7.35;1.33;;;-0.60;93.70;;;;;;5053587;28;20036;-76
2022/01/20 15:03:47;;;;;;;2.10;1.30;;;-0.60;93.60;;;;;;5053758;28;20049;-76
2022/01/20 15:06:13;;;;;;;4.00;1.20;;;-0.60;93.70;;;;;;5053575;28;20414;-76
2022/01/20 15:08:38;;;;;;;5.43;1.27;;;-0.60;93.20;;;;;;5053790;28;20040;-76